Woodbury, Minnesota
Current Conditions -  °F | °C
As of 4:53 PM on Wednesday 22 Oct 2014 (Local Time) from KSTP Reporting Station
Broken Clouds Broken Clouds  
Wind Chill: 57°   Ceiling: 10000
Heat Index: 57°   Visibility: 10mi
Dew Point: 42°   Wind: 20mph
Humidity: 57%   Direction: 150°SSE
Pressure: 30.07"   Gusts: 30mph
Location:  44.92°N, 92.94°W
Report Text: KSTP 222153Z 15017G26KT 10SM SCT080 BKN100 14/06 A3007 RMK AO2 PK WND 16027/2141 RAB31E45 SLP182 P0001 T01390056
Loading
Personal Weather Stations






























Interactive Weather Map
Tropical Storm Tracking
New forecast layout! Learn more

10-Day Weather Forecast

Advertisements
Track Severe Weather on mobile